Time;durP1;ratioP1;P1;durP2;ratioP2;P2;SDS_P1;SDS_P2;PMS_P1;PMS_P2;Temp;Humidity;BMP_temperature;BMP_pressure;BME280_temperature;BME280_humidity;BME280_pressure;Samples;Min_cycle;Max_cycle;Signal;HPM_P1;HPM_P2
2022/07/06 00:05:00;;;;;;;8.88;5.05;;;;;;;8.04;95.95;102401.09;10439779;28;20506;-77
2022/07/06 00:10:00;;;;;;;10.55;5.38;;;;;;;7.98;96.72;102402.28;10449987;28;20115;-78
2022/07/06 00:15:01;;;;;;;7.63;6.05;;;;;;;7.94;97.17;102396.81;10461549;28;20065;-77
2022/07/06 00:20:01;;;;;;;14.13;6.28;;;;;;;7.93;97.74;102388.88;10443094;28;20056;-77
2022/07/06 00:25:02;;;;;;;12.00;4.95;;;;;;;7.89;97.73;102387.69;10441775;28;20033;-77
2022/07/06 00:30:03;;;;;;;9.23;5.07;;;;;;;7.83;98.08;102384.59;10432999;28;20437;-77
2022/07/06 00:35:04;;;;;;;14.00;6.38;;;;;;;7.81;98.75;102390.47;10448102;28;20423;-76
2022/07/06 00:40:06;;;;;;;9.73;6.72;;;;;;;7.78;99.28;102384.22;10450637;28;20040;-77
2022/07/06 00:45:07;;;;;;;13.27;5.90;;;;;;;7.75;99.90;102390.84;10448634;28;20404;-77
2022/07/06 00:50:15;;;;;;;11.55;6.45;;;;;;;7.77;99.83;102390.22;10449046;28;20040;-77
2022/07/06 00:55:16;;;;;;;9.85;5.97;;;;;;;7.70;99.09;102392.16;10470651;28;20044;-77
2022/07/06 01:00:19;;;;;;;9.98;5.97;;;;;;;7.67;99.46;102402.31;10489828;28;20067;-77
2022/07/06 01:05:19;;;;;;;9.32;5.63;;;;;;;7.58;99.76;102410.28;10472947;28;20571;-77
2022/07/06 01:10:20;;;;;;;8.98;5.70;;;;;;;7.57;100.00;102395.44;10489236;28;20033;-77
2022/07/06 01:15:22;;;;;;;11.85;6.38;;;;;;;7.55;100.00;102394.41;10487901;28;20127;-77
2022/07/06 01:20:24;;;;;;;13.93;6.25;;;;;;;7.50;100.00;102383.56;10473132;28;20029;-77
2022/07/06 01:25:24;;;;;;;10.48;6.97;;;;;;;7.52;100.00;102395.03;10489126;28;20098;-77
2022/07/06 01:30:25;;;;;;;12.30;6.43;;;;;;;7.52;100.00;102397.66;10488077;28;20162;-77
2022/07/06 01:35:25;;;;;;;8.90;5.50;;;;;;;7.54;100.00;102395.19;10488952;28;20119;-77
2022/07/06 01:40:26;;;;;;;9.60;5.85;;;;;;;7.48;100.00;102388.69;10454630;28;20116;-78
2022/07/06 01:45:27;;;;;;;10.73;6.97;;;;;;;7.41;100.00;102388.94;10487658;28;20041;-77
2022/07/06 01:50:27;;;;;;;15.80;7.63;;;;;;;7.40;100.00;102391.41;10487124;28;20068;-77
2022/07/06 01:55:28;;;;;;;13.73;9.30;;;;;;;7.42;100.00;102392.44;10489081;28;20036;-77
2022/07/06 02:00:28;;;;;;;12.00;7.22;;;;;;;7.44;100.00;102390.88;10488645;28;20060;-77
2022/07/06 02:05:29;;;;;;;11.95;7.15;;;;;;;7.41;100.00;102383.72;10496204;28;20510;-77
2022/07/06 02:10:29;;;;;;;17.27;8.10;;;;;;;7.39;100.00;102390.50;10499541;28;20048;-77
2022/07/06 02:15:30;;;;;;;14.82;8.07;;;;;;;7.32;100.00;102380.34;10494456;28;20074;-76
2022/07/06 02:20:30;;;;;;;10.32;6.68;;;;;;;7.25;100.00;102378.88;10498649;28;20034;-77
2022/07/06 02:25:31;;;;;;;11.60;7.35;;;;;;;7.15;100.00;102373.69;10504376;28;20041;-77
2022/07/06 02:30:31;;;;;;;12.07;7.75;;;;;;;7.13;100.00;102380.44;10457976;28;20056;-77
2022/07/06 02:35:32;;;;;;;9.93;6.72;;;;;;;7.01;100.00;102376.00;10430330;28;20032;-77
2022/07/06 02:40:32;;;;;;;14.77;7.38;;;;;;;6.96;100.00;102379.00;10427767;28;20108;-77
2022/07/06 02:45:33;;;;;;;12.32;7.68;;;;;;;6.94;100.00;102378.84;10484208;28;20123;-77
2022/07/06 02:50:33;;;;;;;10.45;7.47;;;;;;;6.89;100.00;102388.88;10461766;28;20037;-77
2022/07/06 02:55:34;;;;;;;15.25;7.63;;;;;;;6.77;100.00;102390.41;10466393;28;20068;-78
2022/07/06 03:00:34;;;;;;;12.77;8.20;;;;;;;6.70;100.00;102391.56;10469278;28;20489;-77
2022/07/06 03:05:35;;;;;;;17.50;9.50;;;;;;;6.70;100.00;102388.06;10461165;28;20119;-77
2022/07/06 03:10:35;;;;;;;19.52;8.00;;;;;;;6.69;100.00;102379.31;10443155;28;20128;-77
2022/07/06 03:15:36;;;;;;;17.38;10.73;;;;;;;6.66;100.00;102386.84;10448862;28;20065;-77
2022/07/06 03:20:36;;;;;;;13.00;8.13;;;;;;;6.70;100.00;102394.16;10452223;28;20063;-77
2022/07/06 03:25:37;;;;;;;15.32;8.55;;;;;;;6.63;100.00;102397.00;10442825;28;20120;-76
2022/07/06 03:30:37;;;;;;;14.68;9.45;;;;;;;6.57;100.00;102399.06;10470832;28;20377;-77
2022/07/06 03:35:38;;;;;;;14.00;9.18;;;;;;;6.51;100.00;102396.84;10450334;28;20512;-76
2022/07/06 03:40:38;;;;;;;12.93;9.35;;;;;;;6.49;100.00;102397.47;10483657;28;20048;-77
2022/07/06 03:45:39;;;;;;;14.85;9.90;;;;;;;6.47;100.00;102403.44;10488700;28;20127;-77
2022/07/06 03:50:39;;;;;;;20.33;11.25;;;;;;;6.46;100.00;102411.13;10506219;28;20036;-77
2022/07/06 03:55:40;;;;;;;23.13;11.07;;;;;;;6.50;100.00;102408.03;10525073;28;20051;-77
2022/07/06 04:00:40;;;;;;;18.52;11.10;;;;;;;6.61;100.00;102409.88;10498914;28;20040;-77
2022/07/06 04:05:41;;;;;;;13.88;10.15;;;;;;;6.71;100.00;102408.09;10465880;28;20151;-77
2022/07/06 04:10:41;;;;;;;20.10;12.93;;;;;;;6.79;100.00;102409.69;10481503;28;20152;-77
2022/07/06 04:15:42;;;;;;;15.95;9.55;;;;;;;6.92;100.00;102405.53;10483282;28;20049;-77
2022/07/06 04:20:42;;;;;;;16.88;10.48;;;;;;;7.03;100.00;102403.09;10455418;28;20436;-77
2022/07/06 04:25:43;;;;;;;17.23;10.27;;;;;;;7.18;100.00;102405.19;10446670;28;20041;-77
2022/07/06 04:30:43;;;;;;;15.23;9.85;;;;;;;7.50;100.00;102401.81;10495581;28;20163;-77
2022/07/06 04:35:44;;;;;;;16.95;10.88;;;;;;;7.95;100.00;102405.56;10483129;28;20065;-77
2022/07/06 04:40:46;;;;;;;14.02;9.35;;;;;;;8.46;100.00;102396.66;10482153;28;20183;-77
2022/07/06 04:45:46;;;;;;;16.42;8.32;;;;;;;8.78;100.00;102394.84;10485759;28;20442;-77
2022/07/06 04:50:47;;;;;;;13.68;8.23;;;;;;;8.86;100.00;102396.38;10507768;28;20119;-76
2022/07/06 04:55:47;;;;;;;13.02;7.90;;;;;;;8.73;100.00;102398.78;10489139;28;20089;-77
2022/07/06 05:00:48;;;;;;;13.57;7.90;;;;;;;8.75;100.00;102397.22;10482320;28;20045;-76
2022/07/06 05:05:48;;;;;;;8.65;5.90;;;;;;;8.97;100.00;102399.81;10466395;28;20116;-77
2022/07/06 05:10:49;;;;;;;10.63;5.65;;;;;;;9.55;99.95;102406.03;10509138;28;20041;-77
2022/07/06 05:15:49;;;;;;;7.30;4.78;;;;;;;10.33;97.92;102401.31;10489838;28;20032;-77
2022/07/06 05:20:50;;;;;;;14.43;5.07;;;;;;;10.78;90.82;102401.03;10488463;28;20630;-77
2022/07/06 05:25:50;;;;;;;7.97;4.63;;;;;;;11.59;88.37;102403.19;10487337;28;20040;-77
2022/07/06 05:30:51;;;;;;;10.48;5.38;;;;;;;12.69;83.16;102404.22;10508835;28;20399;-77
2022/07/06 05:35:51;;;;;;;6.32;4.30;;;;;;;13.45;79.73;102405.38;10488143;28;20119;-77
2022/07/06 05:40:52;;;;;;;8.88;5.82;;;;;;;14.22;74.92;102398.44;10475330;28;20123;-78
2022/07/06 05:45:52;;;;;;;11.60;5.05;;;;;;;15.02;72.46;102403.72;10504783;28;20060;-77
2022/07/06 05:50:53;;;;;;;7.00;4.80;;;;;;;15.70;70.00;102407.25;10498121;28;20544;-78
2022/07/06 05:55:53;;;;;;;7.65;4.07;;;;;;;17.09;66.19;102409.53;10502544;28;20033;-77
2022/07/06 06:00:54;;;;;;;7.10;4.37;;;;;;;17.93;60.69;102399.91;10488077;28;20037;-78
2022/07/06 06:05:54;;;;;;;5.87;4.47;;;;;;;18.56;60.36;102415.78;10433672;28;20116;-78
2022/07/06 06:10:55;;;;;;;6.23;4.03;;;;;;;18.96;57.65;102418.16;10456977;28;20071;-77
2022/07/06 06:15:56;;;;;;;5.07;3.53;;;;;;;19.24;57.23;102409.47;10472863;28;20102;-78
2022/07/06 06:20:56;;;;;;;4.30;2.93;;;;;;;19.75;53.77;102407.69;10447459;28;20380;-77
2022/07/06 06:25:57;;;;;;;6.90;3.40;;;;;;;20.31;54.33;102404.25;10475478;28;20055;-78
2022/07/06 06:30:57;;;;;;;7.53;3.17;;;;;;;20.60;52.85;102404.25;10449791;28;22332;-77
2022/07/06 06:35:57;;;;;;;6.53;2.70;;;;;;;20.65;52.65;102402.63;10443922;28;20037;-77
2022/07/06 06:40:58;;;;;;;3.53;1.80;;;;;;;21.28;49.54;102406.25;10464191;28;20064;-77
2022/07/06 06:45:58;;;;;;;3.43;1.63;;;;;;;21.48;50.23;102409.47;10466694;27;20446;-77
2022/07/06 06:50:59;;;;;;;3.53;1.50;;;;;;;21.30;49.60;102411.63;10501436;28;20102;-77
2022/07/06 06:56:00;;;;;;;4.40;1.87;;;;;;;22.73;43.63;102402.72;10451242;28;20443;-78
2022/07/06 07:01:00;;;;;;;3.13;2.20;;;;;;;23.01;44.15;102405.97;10476313;28;20067;-77
2022/07/06 07:06:01;;;;;;;4.93;1.40;;;;;;;22.69;45.52;102409.78;10480232;28;20229;-76
2022/07/06 07:11:01;;;;;;;7.63;1.57;;;;;;;21.71;46.99;102417.22;10458204;28;20075;-77
2022/07/06 07:16:01;;;;;;;5.63;2.13;;;;;;;20.93;48.59;102414.13;10458580;28;20497;-76
2022/07/06 07:21:03;;;;;;;3.90;1.67;;;;;;;21.69;47.91;102417.16;10471840;28;20047;-75
2022/07/06 07:26:05;;;;;;;19.38;12.07;;;;;;;21.64;47.78;102431.22;10441951;28;20041;-76
2022/07/06 07:31:05;;;;;;;4.07;1.95;;;;;;;22.81;45.22;102413.59;10442824;28;20033;-76
2022/07/06 07:36:06;;;;;;;4.37;1.10;;;;;;;21.50;44.01;102423.72;10421815;28;20029;-76
2022/07/06 07:41:07;;;;;;;2.03;0.80;;;;;;;18.75;50.88;102422.66;10443209;28;20052;-75
2022/07/06 07:46:07;;;;;;;3.55;1.38;;;;;;;17.54;56.00;102438.00;10441633;28;20033;-76
2022/07/06 07:51:08;;;;;;;2.85;1.33;;;;;;;20.43;51.18;102422.34;10424543;28;20033;-76
2022/07/06 07:56:08;;;;;;;5.53;2.07;;;;;;;22.37;44.85;102414.34;10424236;28;20082;-76
2022/07/06 08:01:09;;;;;;;5.03;1.70;;;;;;;21.24;46.76;102409.69;10443330;28;20393;-76
2022/07/06 08:06:10;;;;;;;3.90;1.00;;;;;;;21.68;44.89;102414.47;10443920;28;20045;-76
2022/07/06 08:11:10;;;;;;;2.07;0.97;;;;;;;20.45;46.89;102416.22;10441104;28;20511;-75
2022/07/06 08:16:11;;;;;;;2.38;0.80;;;;;;;21.13;48.80;102404.06;10425063;28;20481;-75
2022/07/06 08:21:11;;;;;;;2.23;0.60;;;;;;;23.65;42.51;102391.19;10442369;28;20132;-76
2022/07/06 08:26:12;;;;;;;2.53;1.50;;;;;;;23.35;42.86;102389.75;10442445;28;20031;-75
2022/07/06 08:31:12;;;;;;;2.27;0.80;;;;;;;23.93;38.92;102392.53;10440039;28;20044;-76
2022/07/06 08:36:14;;;;;;;;;;;;;;;25.77;37.14;102391.28;10442076;28;20124;-76
2022/07/06 08:41:15;;;;;;;3.10;1.05;;;;;;;24.05;38.98;102397.22;10457265;28;20008;-75
2022/07/06 08:46:16;;;;;;;3.23;1.00;;;;;;;21.66;45.79;102402.88;10465717;28;20076;-76
2022/07/06 08:51:16;;;;;;;2.13;1.00;;;;;;;20.45;47.71;102410.00;10455023;28;20041;-75
2022/07/06 08:56:18;;;;;;;16.38;9.05;;;;;;;19.70;48.77;102418.19;10497117;28;20035;-75
2022/07/06 09:01:18;;;;;;;10.00;3.65;;;;;;;19.51;49.82;102417.53;10448906;28;20087;-77
2022/07/06 09:06:24;;;;;;;4.10;1.08;;;;;;;22.11;46.36;102409.28;10481293;28;20707;-76
2022/07/06 09:11:25;;;;;;;1.83;1.13;;;;;;;25.09;40.44;102392.41;10411019;28;20056;-76
2022/07/06 09:16:30;;;;;;;2.75;0.80;;;;;;;26.48;34.76;102385.56;10443440;28;20041;-75
2022/07/06 09:21:32;;;;;;;2.90;1.10;;;;;;;25.44;37.30;102382.03;10481185;28;20079;-77
2022/07/06 09:26:33;;;;;;;4.95;1.55;;;;;;;26.78;34.31;102374.94;10431717;28;20067;-75
2022/07/06 09:31:34;;;;;;;;;;;;;;;25.33;36.67;102390.00;10474954;28;20504;-75
2022/07/06 09:36:38;;;;;;;2.97;1.73;;;;;;;22.81;39.40;102386.91;10481213;28;19920;-75
2022/07/06 09:41:39;;;;;;;10.07;6.95;;;;;;;21.99;43.51;102391.25;10458305;28;20076;-75
2022/07/06 09:46:42;;;;;;;2.72;1.00;;;;;;;24.62;35.67;102392.69;10427413;28;20045;-75
2022/07/06 09:51:42;;;;;;;18.90;10.45;;;;;;;25.52;35.69;102384.84;10445558;28;20482;-76
2022/07/06 09:56:50;;;;;;;5.20;1.80;;;;;;;22.66;38.19;102392.78;10437103;28;20040;-75
2022/07/06 10:01:52;;;;;;;2.80;1.10;;;;;;;22.12;41.96;102395.09;10468508;28;20044;-75
2022/07/06 10:06:54;;;;;;;3.97;0.98;;;;;;;24.62;35.79;102397.16;10453076;28;20443;-74
2022/07/06 10:12:03;;;;;;;2.15;0.90;;;;;;;23.78;38.58;102390.53;10466668;28;20393;-74
2022/07/06 10:17:04;;;;;;;5.57;1.88;;;;;;;21.60;41.61;102406.22;10483874;28;20484;-75
2022/07/06 10:22:05;;;;;;;1.00;0.63;;;;;;;21.60;43.20;102400.88;10473071;28;20040;-74
2022/07/06 10:27:06;;;;;;;7.00;1.70;;;;;;;23.65;37.89;102381.38;10450133;28;20033;-75
2022/07/06 10:32:07;;;;;;;5.20;1.10;;;;;;;23.80;38.16;102378.09;10456053;28;20037;-75
2022/07/06 10:37:09;;;;;;;31.33;21.83;;;;;;;22.87;40.27;102395.91;10493563;28;20036;-76
2022/07/06 10:42:12;;;;;;;;;;;;;;;21.52;44.14;102397.13;10430673;28;20037;-76
2022/07/06 10:47:12;;;;;;;2.55;1.33;;;;;;;22.10;42.77;102397.75;10425211;28;19971;-75
2022/07/06 10:52:16;;;;;;;2.65;0.80;;;;;;;22.07;43.28;102388.75;10444140;28;20057;-74
2022/07/06 10:57:18;;;;;;;2.30;1.48;;;;;;;22.74;44.06;102393.84;10486708;28;20032;-75
2022/07/06 11:02:18;;;;;;;;;;;;;;;24.35;40.43;102385.19;10528253;28;20052;-74
2022/07/06 11:07:19;;;;;;;2.43;1.23;;;;;;;23.91;38.74;102386.25;10524266;28;20034;-75
2022/07/06 11:12:20;;;;;;;2.20;1.20;;;;;;;23.31;39.35;102378.09;10491194;28;20282;-75
2022/07/06 11:17:21;;;;;;;2.17;1.00;;;;;;;22.18;41.80;102381.03;10525541;28;20031;-75
2022/07/06 11:22:24;;;;;;;2.63;1.00;;;;;;;21.81;44.39;102392.59;10491484;28;20094;-75
2022/07/06 11:27:24;;;;;;;2.05;0.75;;;;;;;22.24;42.59;102387.41;10525324;28;20404;-75
2022/07/06 11:32:25;;;;;;;7.78;1.00;;;;;;;21.98;42.15;102389.44;10504311;28;20120;-75
2022/07/06 11:37:26;;;;;;;2.37;0.73;;;;;;;22.42;41.56;102386.00;10456278;28;20055;-75
2022/07/06 11:42:26;;;;;;;3.20;0.95;;;;;;;22.12;42.71;102372.03;10482935;28;20318;-75
2022/07/06 11:47:30;;;;;;;1.75;1.08;;;;;;;22.11;43.46;102369.31;10483720;28;20037;-75
2022/07/06 11:52:31;;;;;;;4.03;2.13;;;;;;;22.44;41.94;102370.94;10444324;28;20079;-75
2022/07/06 11:57:32;;;;;;;3.10;1.25;;;;;;;21.60;41.78;102373.38;10489147;28;20114;-75
2022/07/06 12:02:32;;;;;;;3.83;1.17;;;;;;;21.74;42.28;102374.66;10475829;28;20032;-74
2022/07/06 12:07:33;;;;;;;3.42;1.08;;;;;;;22.15;41.15;102365.84;10488076;28;20452;-75
2022/07/06 12:12:33;;;;;;;5.07;1.40;;;;;;;22.44;42.73;102353.22;10481928;28;20119;-76
2022/07/06 12:17:35;;;;;;;1.97;0.90;;;;;;;23.02;38.79;102352.63;10483285;28;20119;-76
2022/07/06 12:22:35;;;;;;;2.70;1.20;;;;;;;23.48;40.72;102343.69;10494601;28;20032;-76
2022/07/06 12:27:36;;;;;;;8.53;5.20;;;;;;;25.25;36.80;102342.56;10464981;28;20123;-76
2022/07/06 12:32:36;;;;;;;5.87;2.07;;;;;;;24.90;39.71;102328.81;10482165;28;20037;-76
2022/07/06 12:37:37;;;;;;;3.10;2.00;;;;;;;26.19;34.36;102321.91;10465029;28;20546;-76
2022/07/06 12:42:45;;;;;;;3.40;1.77;;;;;;;25.54;37.05;102323.19;10481925;28;20048;-77
2022/07/06 12:48:04;;;;;;;2.88;1.33;;;;;;;24.51;38.43;102335.44;10432526;28;20052;-77
2022/07/06 12:53:05;;;;;;;2.97;1.58;;;;;;;26.63;32.42;102314.03;10474463;28;20120;-76
2022/07/06 12:58:06;;;;;;;3.70;1.67;;;;;;;24.61;37.61;102325.78;10463983;28;20036;-77
2022/07/06 13:03:06;;;;;;;5.07;1.33;;;;;;;23.64;41.11;102309.22;10449104;28;20044;-77
2022/07/06 13:08:08;;;;;;;4.87;1.97;;;;;;;23.96;37.32;102315.06;10465947;28;20089;-77
2022/07/06 13:13:14;;;;;;;2.55;1.50;;;;;;;23.82;38.40;102314.84;10493785;28;20131;-75
2022/07/06 13:18:21;;;;;;;6.30;1.95;;;;;;;25.73;35.90;102308.16;10504358;28;20040;-75
2022/07/06 13:23:22;;;;;;;5.40;3.03;;;;;;;26.26;36.47;102303.16;10430197;28;20432;-76
2022/07/06 13:28:25;;;;;;;4.17;1.90;;;;;;;26.76;35.40;102293.47;10452344;28;20116;-76
2022/07/06 13:33:26;;;;;;;6.80;1.63;;;;;;;26.93;34.66;102293.56;10449386;28;20037;-76
2022/07/06 13:38:27;;;;;;;6.87;1.67;;;;;;;26.52;34.54;102295.19;10505802;28;20122;-75
2022/07/06 13:43:35;;;;;;;2.30;1.40;;;;;;;24.16;37.78;102301.09;10469996;28;20033;-76
2022/07/06 13:48:36;;;;;;;2.70;0.90;;;;;;;25.85;40.78;102291.25;10481363;28;20043;-75
2022/07/06 13:53:37;;;;;;;1.93;1.33;;;;;;;26.34;31.17;102275.44;10504474;28;20067;-75
2022/07/06 13:58:37;;;;;;;1.50;1.27;;;;;;;24.83;34.63;102293.94;10411607;28;20033;-76
2022/07/06 14:03:38;;;;;;;3.40;1.70;;;;;;;25.69;31.94;102282.22;10413615;28;20493;-75
2022/07/06 14:08:40;;;;;;;10.20;6.45;;;;;;;26.50;33.83;102275.50;10446204;28;20073;-75
2022/07/06 14:13:41;;;;;;;4.50;1.35;;;;;;;26.21;32.68;102265.53;10423507;28;20040;-75
2022/07/06 14:18:43;;;;;;;7.37;2.23;;;;;;;26.10;33.29;102265.47;10429717;28;20048;-74
2022/07/06 14:23:43;;;;;;;2.10;0.90;;;;;;;24.98;36.57;102259.28;10423415;28;20036;-75
2022/07/06 14:28:44;;;;;;;3.83;1.20;;;;;;;24.76;36.10;102248.34;10451473;28;20427;-74
2022/07/06 14:33:46;;;;;;;3.83;1.43;;;;;;;23.30;38.41;102248.09;10474024;28;20052;-75
2022/07/06 14:38:46;;;;;;;1.95;1.30;;;;;;;23.09;38.44;102237.94;10463835;28;20035;-74
2022/07/06 14:43:47;;;;;;;10.20;3.13;;;;;;;23.00;41.67;102244.91;10475317;28;20062;-75
2022/07/06 14:48:47;;;;;;;5.73;2.17;;;;;;;23.46;39.52;102231.44;10441055;28;20045;-75
2022/07/06 14:53:48;;;;;;;4.47;1.40;;;;;;;25.13;36.92;102214.78;10458484;28;20555;-75
2022/07/06 14:58:49;;;;;;;5.83;1.70;;;;;;;24.94;37.09;102219.97;10466912;28;20044;-75
2022/07/06 15:03:49;;;;;;;2.50;0.90;;;;;;;24.90;38.50;102216.34;10521644;28;20114;-75
2022/07/06 15:08:50;;;;;;;5.73;1.80;;;;;;;23.68;38.34;102217.53;10461002;28;20047;-76
2022/07/06 15:13:50;;;;;;;3.53;1.23;;;;;;;22.77;40.87;102214.25;10482866;28;20044;-76
2022/07/06 15:18:51;;;;;;;4.33;1.47;;;;;;;22.12;42.22;102201.41;10487973;28;20503;-75
2022/07/06 15:23:51;;;;;;;4.50;0.88;;;;;;;21.85;45.90;102209.69;10491189;28;20048;-75
2022/07/06 15:28:52;;;;;;;15.68;9.57;;;;;;;21.53;43.38;102197.41;10520200;28;20032;-76
2022/07/06 15:33:52;;;;;;;3.38;1.48;;;;;;;21.27;43.56;102181.72;10473794;28;20503;-75
2022/07/06 15:38:53;;;;;;;2.20;0.98;;;;;;;21.55;43.72;102187.69;10501032;28;20033;-76
2022/07/06 15:43:53;;;;;;;4.25;1.30;;;;;;;21.63;42.38;102187.88;10490331;28;20119;-74
2022/07/06 15:48:54;;;;;;;9.82;4.97;;;;;;;21.66;43.47;102185.28;10481881;28;20107;-74
2022/07/06 15:53:56;;;;;;;4.57;1.33;;;;;;;21.88;45.23;102188.44;10496605;28;20055;-78
2022/07/06 15:58:56;;;;;;;1.55;0.80;;;;;;;21.96;43.16;102170.84;10482215;28;20043;-76
2022/07/06 16:03:57;;;;;;;2.97;1.20;;;;;;;22.41;42.56;102163.75;10454685;28;20484;-78
2022/07/06 16:08:57;;;;;;;5.60;1.83;;;;;;;22.68;42.07;102162.50;10463246;28;20120;-78
2022/07/06 16:13:58;;;;;;;4.53;1.37;;;;;;;22.46;44.23;102166.53;10465774;28;20041;-77
2022/07/06 16:18:58;;;;;;;1.80;1.10;;;;;;;22.07;43.51;102162.16;10483143;28;20134;-77
2022/07/06 16:23:59;;;;;;;2.25;1.10;;;;;;;21.55;45.31;102161.06;10464877;28;20090;-77
2022/07/06 16:29:00;;;;;;;4.20;0.90;;;;;;;21.87;41.30;102148.44;10482314;28;20512;-77
2022/07/06 16:34:01;;;;;;;2.83;1.45;;;;;;;21.89;43.75;102150.25;10448807;28;20037;-77
2022/07/06 16:39:01;;;;;;;5.65;1.30;;;;;;;21.49;44.81;102144.94;10481162;28;20048;-77
2022/07/06 16:44:02;;;;;;;6.72;1.40;;;;;;;21.24;46.51;102140.78;10482495;28;20033;-77
2022/07/06 16:49:02;;;;;;;2.95;1.30;;;;;;;21.48;45.37;102139.56;10448530;28;20037;-76
2022/07/06 16:54:03;;;;;;;1.40;1.05;;;;;;;21.31;46.64;102123.22;10464297;28;20119;-78
2022/07/06 16:59:03;;;;;;;2.00;1.20;;;;;;;20.92;46.37;102120.53;10481451;28;20504;-78
2022/07/06 17:04:04;;;;;;;2.20;1.08;;;;;;;20.80;47.10;102114.91;10465204;28;20043;-77
2022/07/06 17:09:05;;;;;;;3.75;2.00;;;;;;;20.77;49.47;102109.47;10469218;28;20036;-76
2022/07/06 17:14:05;;;;;;;3.72;1.73;;;;;;;20.91;48.74;102105.44;10489498;28;20399;-77
2022/07/06 17:19:06;;;;;;;4.05;1.58;;;;;;;20.89;47.51;102109.81;10489226;28;20119;-77
2022/07/06 17:24:08;;;;;;;3.08;1.40;;;;;;;20.74;50.71;102104.97;10489829;28;20064;-77
2022/07/06 17:29:08;;;;;;;3.00;1.92;;;;;;;20.65;48.88;102104.72;10454612;28;20039;-77
2022/07/06 17:34:09;;;;;;;3.30;1.70;;;;;;;20.31;49.11;102106.50;10454401;28;20039;-77
2022/07/06 17:39:09;;;;;;;1.73;1.30;;;;;;;20.29;49.54;102101.16;10488114;28;20060;-77
2022/07/06 17:44:10;;;;;;;4.38;2.67;;;;;;;20.36;49.00;102103.13;10489082;28;20433;-76
2022/07/06 17:49:10;;;;;;;8.30;3.42;;;;;;;20.29;49.77;102102.91;10453596;28;20120;-77
2022/07/06 17:54:11;;;;;;;4.40;1.50;;;;;;;20.14;49.98;102106.94;10488431;28;20128;-77
2022/07/06 17:59:11;;;;;;;5.28;1.55;;;;;;;19.98;51.07;102099.41;10454462;28;20396;-77
2022/07/06 18:04:12;;;;;;;8.63;2.25;;;;;;;19.85;50.84;102109.63;10469711;28;20048;-76
2022/07/06 18:09:12;;;;;;;5.97;2.10;;;;;;;19.79;51.47;102104.16;10469667;28;20119;-77
2022/07/06 18:14:13;;;;;;;7.53;2.33;;;;;;;19.62;51.69;102098.34;10452571;28;20047;-78
2022/07/06 18:19:13;;;;;;;6.65;2.75;;;;;;;19.46;52.09;102092.59;10452339;28;20492;-78
2022/07/06 18:24:14;;;;;;;6.95;3.30;;;;;;;19.34;52.38;102078.94;10502736;28;20210;-76
2022/07/06 18:29:14;;;;;;;14.63;4.07;;;;;;;19.24;53.49;102079.50;10451772;28;20073;-77
2022/07/06 18:34:15;;;;;;;4.93;2.20;;;;;;;19.13;53.43;102076.50;10469180;28;20035;-77
2022/07/06 18:39:16;;;;;;;8.43;3.08;;;;;;;19.02;53.95;102070.88;10485776;28;20124;-78
2022/07/06 18:44:16;;;;;;;6.38;2.53;;;;;;;18.78;55.02;102071.84;10486230;28;20108;-77
2022/07/06 18:49:17;;;;;;;4.68;1.92;;;;;;;18.52;56.74;102065.66;10468393;28;20120;-77
2022/07/06 18:54:17;;;;;;;2.63;1.73;;;;;;;18.38;55.99;102058.13;10485206;28;20143;-77
2022/07/06 18:59:18;;;;;;;6.55;2.22;;;;;;;18.32;56.63;102072.06;10484556;28;20128;-77
2022/07/06 19:04:18;;;;;;;5.72;2.58;;;;;;;18.31;57.21;102064.97;10467039;28;20047;-77
2022/07/06 19:09:19;;;;;;;4.05;2.10;;;;;;;18.36;57.23;102061.59;10451611;28;20123;-77
2022/07/06 19:14:19;;;;;;;3.78;2.20;;;;;;;18.36;59.58;102059.81;10450904;28;20123;-77
2022/07/06 19:19:21;;;;;;;4.15;2.15;;;;;;;18.27;60.84;102056.84;10466974;28;20535;-77
2022/07/06 19:24:21;;;;;;;5.97;2.10;;;;;;;18.17;60.77;102058.28;10467832;28;20029;-77
2022/07/06 19:29:22;;;;;;;3.25;1.80;;;;;;;17.97;62.22;102054.88;10483487;28;20036;-77
2022/07/06 19:34:22;;;;;;;3.22;2.15;;;;;;;17.65;63.01;102054.59;10449729;28;20441;-77
2022/07/06 19:39:23;;;;;;;5.25;2.35;;;;;;;17.36;63.91;102057.03;10449077;28;20032;-76
2022/07/06 19:44:23;;;;;;;6.50;2.28;;;;;;;17.18;68.00;102052.84;10450076;28;20036;-76
2022/07/06 19:49:24;;;;;;;8.00;2.50;;;;;;;17.01;68.71;102061.00;10465660;28;20123;-77
2022/07/06 19:54:24;;;;;;;5.68;2.30;;;;;;;16.88;69.93;102049.00;10448348;28;20515;-77
2022/07/06 19:59:25;;;;;;;8.55;3.03;;;;;;;16.70;70.52;102059.72;10466195;28;20154;-77
2022/07/06 20:04:27;;;;;;;15.88;3.53;;;;;;;16.58;71.86;102064.50;10483712;28;20058;-77
2022/07/06 20:09:27;;;;;;;4.65;2.58;;;;;;;16.42;72.54;102061.19;10483021;28;20119;-77
2022/07/06 20:14:28;;;;;;;8.63;2.78;;;;;;;16.42;72.01;102052.38;10482790;28;20039;-77
2022/07/06 20:19:31;;;;;;;6.97;2.97;;;;;;;16.27;73.83;102068.47;10448891;28;20056;-77
2022/07/06 20:24:32;;;;;;;5.03;2.70;;;;;;;16.09;74.08;102064.19;10448892;28;20114;-77
2022/07/06 20:29:33;;;;;;;7.07;3.08;;;;;;;16.08;73.84;102059.75;10482187;28;20045;-77
2022/07/06 20:34:33;;;;;;;5.97;3.35;;;;;;;16.17;73.89;102055.69;10482664;28;20124;-77
2022/07/06 20:39:34;;;;;;;8.45;4.70;;;;;;;16.20;75.56;102064.66;10464495;28;20064;-77
2022/07/06 20:44:34;;;;;;;5.82;2.92;;;;;;;16.17;75.46;102059.25;10469860;28;20071;-77
2022/07/06 20:49:35;;;;;;;7.85;3.95;;;;;;;16.18;79.52;102060.13;10473181;28;20048;-77
2022/07/06 20:54:37;;;;;;;6.30;3.35;;;;;;;16.04;78.96;102049.00;10473640;28;20118;-77
2022/07/06 20:59:39;;;;;;;5.88;3.78;;;;;;;15.92;78.53;102047.63;10472505;28;20178;-77
2022/07/06 21:04:39;;;;;;;9.70;3.20;;;;;;;15.93;79.23;102041.50;10472520;28;20043;-77
2022/07/06 21:09:40;;;;;;;6.90;4.32;;;;;;;15.91;78.82;102037.88;10477298;28;20064;-77
2022/07/06 21:14:40;;;;;;;5.32;3.35;;;;;;;15.89;78.73;102051.84;10455798;28;20040;-75
2022/07/06 21:19:41;;;;;;;7.40;5.10;;;;;;;15.90;79.39;102058.91;10476156;28;20046;-75
2022/07/06 21:24:41;;;;;;;10.40;4.22;;;;;;;15.90;79.84;102051.00;10461619;28;20051;-75
2022/07/06 21:29:42;;;;;;;8.77;4.75;;;;;;;15.90;79.59;102035.16;10493052;28;20044;-75
2022/07/06 21:34:42;;;;;;;6.80;4.53;;;;;;;15.88;79.88;102040.38;10508746;28;20115;-74
2022/07/06 21:39:43;;;;;;;11.32;4.82;;;;;;;15.89;79.47;102029.00;10494791;28;20117;-76
2022/07/06 21:44:44;;;;;;;7.18;4.35;;;;;;;15.90;79.54;102028.16;10501183;28;20411;-75
2022/07/06 21:49:45;;;;;;;7.33;5.47;;;;;;;15.96;78.21;102033.72;10526027;28;20076;-75
2022/07/06 21:54:45;;;;;;;6.72;6.00;;;;;;;16.10;76.80;102021.09;10452882;28;20086;-76
2022/07/06 21:59:46;;;;;;;9.65;5.38;;;;;;;16.11;75.71;102019.38;10520411;28;20480;-76
2022/07/06 22:04:47;;;;;;;5.82;3.85;;;;;;;16.20;76.20;102024.13;10531153;28;20032;-75
2022/07/06 22:09:47;;;;;;;6.97;4.85;;;;;;;16.23;75.73;102025.19;10529788;28;20484;-76
2022/07/06 22:14:48;;;;;;;10.02;5.28;;;;;;;16.32;73.37;102026.41;10494828;28;20090;-76
2022/07/06 22:19:48;;;;;;;5.07;3.55;;;;;;;16.42;74.71;102013.66;10530281;28;20036;-76
2022/07/06 22:24:49;;;;;;;7.60;4.05;;;;;;;16.35;75.75;102005.41;10529216;28;20031;-76
2022/07/06 22:29:49;;;;;;;8.82;4.82;;;;;;;16.17;76.66;102001.16;10511391;28;20054;-76
2022/07/06 22:34:50;;;;;;;12.90;5.18;;;;;;;16.06;76.27;101997.16;10490712;28;20041;-76
2022/07/06 22:41:00;;;;;;;8.57;3.88;;;;;;;15.91;77.98;101994.72;10469231;28;20472;-76
2022/07/06 22:45:11;;;;;;;7.60;4.88;;;;;;;15.79;78.59;101995.97;10469745;28;20028;-75
2022/07/06 22:50:12;;;;;;;9.77;5.93;;;;;;;15.70;79.41;101993.84;10485755;28;20059;-76
2022/07/06 22:55:13;;;;;;;6.28;4.25;;;;;;;15.61;79.59;101996.06;10485187;28;20523;-75
2022/07/06 23:00:13;;;;;;;7.30;3.97;;;;;;;15.54;80.69;101989.59;10467162;28;20094;-76
2022/07/06 23:05:14;;;;;;;9.07;4.97;;;;;;;15.60;80.66;101988.06;10450805;28;20070;-76